Time;durP1;ratioP1;P1;durP2;ratioP2;P2;SDS_P1;SDS_P2;PMS_P1;PMS_P2;Temp;Humidity;BMP_temperature;BMP_pressure;BME280_temperature;BME280_humidity;BME280_pressure;Samples;Min_cycle;Max_cycle;Signal;HPM_P1;HPM_P2
2022/07/24 00:02:04;;;;;;;16.73;6.33;;;;;;;23.60;100.00;63331.81;5078982;28;20201;-75
2022/07/24 00:04:32;;;;;;;18.93;7.80;;;;;;;23.43;100.00;63314.47;5095392;28;20188;-73
2022/07/24 00:06:59;;;;;;;10.67;6.47;;;;;;;23.36;100.00;63306.34;5094280;28;20196;-74
2022/07/24 00:09:26;;;;;;;13.80;6.63;;;;;;;23.47;100.00;63320.84;5088939;28;20201;-74
2022/07/24 00:11:53;;;;;;;11.40;7.47;;;;;;;23.23;100.00;63292.75;5075413;28;20226;-74
2022/07/24 00:14:20;;;;;;;10.43;7.00;;;;;;;23.16;100.00;63284.63;5075592;28;20208;-73
2022/07/24 00:16:47;;;;;;;16.57;7.03;;;;;;;23.01;100.00;63268.34;5075604;28;20215;-72
2022/07/24 00:19:14;;;;;;;15.27;6.47;;;;;;;22.94;100.00;63260.78;5076072;28;20213;-73
2022/07/24 00:21:42;;;;;;;19.47;7.67;;;;;;;23.02;100.00;63272.06;5076144;28;20201;-74
2022/07/24 00:24:09;;;;;;;24.20;8.07;;;;;;;23.03;100.00;63271.06;5074979;28;20303;-73
2022/07/24 00:26:36;;;;;;;13.50;6.97;;;;;;;22.93;100.00;63257.09;5075480;28;20231;-74
2022/07/24 00:29:04;;;;;;;14.17;6.97;;;;;;;22.84;100.00;63250.47;5074907;28;20196;-73
2022/07/24 00:31:31;;;;;;;11.27;6.97;;;;;;;22.89;100.00;63250.69;5068291;28;20219;-75
2022/07/24 00:33:58;;;;;;;15.33;7.00;;;;;;;22.84;100.00;63247.34;5082812;28;20201;-73
2022/07/24 00:36:25;;;;;;;14.23;7.27;;;;;;;22.80;100.00;63245.59;5086408;28;20678;-74
2022/07/24 00:38:53;;;;;;;14.50;6.97;;;;;;;22.84;100.00;63244.75;5075147;28;20203;-74
2022/07/24 00:41:20;;;;;;;17.53;7.53;;;;;;;22.75;100.00;63237.56;5088074;28;20238;-73
2022/07/24 00:44:05;;;;;;;14.97;7.47;;;;;;;22.75;100.00;63240.19;5094304;28;20187;-76
2022/07/24 00:46:32;;;;;;;17.37;8.30;;;;;;;22.64;100.00;63229.34;5080788;28;20204;-75
2022/07/24 00:48:59;;;;;;;17.30;7.80;;;;;;;22.62;100.00;63226.63;5094746;28;20212;-74
2022/07/24 00:51:27;;;;;;;17.40;7.50;;;;;;;22.55;100.00;63221.63;5092078;28;20273;-74
2022/07/24 00:53:55;;;;;;;14.20;7.43;;;;;;;22.56;100.00;63220.66;5084186;28;20205;-74
2022/07/24 00:56:23;;;;;;;13.63;7.20;;;;;;;22.28;100.00;63190.31;5091150;28;20868;-74
2022/07/24 00:58:50;;;;;;;16.03;7.00;;;;;;;21.16;100.00;63063.84;5074658;28;20204;-74
2022/07/24 01:01:18;;;;;;;14.43;7.50;;;;;;;22.39;100.00;63202.25;5074551;28;20211;-74
2022/07/24 01:03:46;;;;;;;15.87;7.63;;;;;;;22.39;100.00;63201.69;5078428;28;20279;-72
2022/07/24 01:06:13;;;;;;;14.83;7.60;;;;;;;22.02;100.00;63156.97;5094174;28;20654;-73
2022/07/24 01:08:42;;;;;;;16.20;7.57;;;;;;;22.29;100.00;63196.59;5092556;28;20223;-74
2022/07/24 01:11:11;;;;;;;12.70;6.97;;;;;;;22.26;100.00;63185.56;5094227;28;20200;-73
2022/07/24 01:13:39;;;;;;;14.97;7.23;;;;;;;22.25;100.00;63186.53;5088205;28;20245;-72
2022/07/24 01:16:07;;;;;;;12.20;7.47;;;;;;;21.90;100.00;63143.41;5074442;28;20196;-74
2022/07/24 01:18:34;;;;;;;16.57;8.07;;;;;;;22.23;100.00;63181.75;5074594;28;20200;-73
2022/07/24 01:21:03;;;;;;;14.07;8.00;;;;;;;21.75;100.00;63133.41;5074371;28;20223;-74
2022/07/24 01:23:31;;;;;;;15.63;8.43;;;;;;;21.65;100.00;63122.06;5074259;28;20189;-74
2022/07/24 01:25:58;;;;;;;13.97;8.50;;;;;;;21.57;100.00;63113.41;5074843;28;20229;-74
2022/07/24 01:28:25;;;;;;;12.63;7.60;;;;;;;20.46;100.00;62994.34;5074974;28;20196;-74
2022/07/24 01:30:55;;;;;;;15.03;8.30;;;;;;;21.06;100.00;63058.19;5073647;28;20198;-74
2022/07/24 01:33:21;;;;;;;12.80;7.67;;;;;;;21.02;100.00;63054.97;5076974;28;20224;-73
2022/07/24 01:35:48;;;;;;;21.07;7.87;;;;;;;20.94;100.00;63046.28;5076783;28;20200;-75
2022/07/24 01:38:16;;;;;;;11.23;8.03;;;;;;;20.85;100.00;63033.41;5073295;28;20668;-74
2022/07/24 01:40:43;;;;;;;13.83;7.20;;;;;;;20.71;100.00;63021.38;5076273;28;20203;-77
2022/07/24 01:43:11;;;;;;;13.00;8.23;;;;;;;20.50;100.00;63003.88;5077122;28;20223;-74
2022/07/24 01:45:38;;;;;;;23.97;8.50;;;;;;;20.44;100.00;62997.38;5079118;28;20188;-73
2022/07/24 01:48:07;;;;;;;13.27;7.70;;;;;;;19.42;100.00;62879.31;5075993;28;20196;-77
2022/07/24 01:50:34;;;;;;;14.87;7.93;;;;;;;20.65;100.00;63012.31;5077910;28;20206;-74
2022/07/24 01:53:02;;;;;;;11.90;6.63;;;;;;;20.76;100.00;63026.81;5077099;28;20231;-78
2022/07/24 01:55:30;;;;;;;15.93;8.43;;;;;;;20.86;100.00;63037.63;5093881;28;20299;-77
2022/07/24 01:57:58;;;;;;;20.43;8.63;;;;;;;20.89;100.00;63035.69;5077301;28;20196;-74
2022/07/24 02:00:25;;;;;;;15.53;8.07;;;;;;;21.09;100.00;63061.44;5074445;28;20203;-78
2022/07/24 02:02:53;;;;;;;12.93;8.13;;;;;;;21.18;100.00;63071.72;5075735;28;20578;-77
2022/07/24 02:05:20;;;;;;;13.83;7.50;;;;;;;21.27;100.00;63078.34;5082233;28;20291;-77
2022/07/24 02:07:56;;;;;;;19.00;9.47;;;;;;;21.08;100.00;63055.19;5082870;28;20200;-78
2022/07/24 02:10:23;;;;;;;15.03;8.20;;;;;;;21.11;100.00;63061.56;5081117;28;20188;-78
2022/07/24 02:12:52;;;;;;;15.13;7.80;;;;;;;20.61;100.00;63013.16;5083995;28;20216;-75
2022/07/24 02:15:19;;;;;;;14.10;8.33;;;;;;;20.79;100.00;63024.88;5084415;27;20215;-75
2022/07/24 02:17:47;;;;;;;14.93;8.43;;;;;;;21.39;100.00;63091.34;5072359;28;20196;-75
2022/07/24 02:20:15;;;;;;;16.63;9.17;;;;;;;20.51;100.00;63004.94;5074567;28;20273;-76
2022/07/24 02:22:42;;;;;;;16.03;8.87;;;;;;;20.38;100.00;62977.94;5077119;28;20680;-74
2022/07/24 02:25:10;;;;;;;13.87;8.30;;;;;;;20.97;100.00;63049.53;5092049;28;20238;-74
2022/07/24 02:27:39;;;;;;;16.43;8.53;;;;;;;20.98;100.00;63045.44;5090894;28;20195;-75
2022/07/24 02:30:11;;;;;;;16.70;8.47;;;;;;;20.92;100.00;63044.13;5081968;28;20876;-76
2022/07/24 02:32:39;;;;;;;11.50;7.77;;;;;;;20.79;100.00;63030.03;5069783;28;20227;-74
2022/07/24 02:35:08;;;;;;;15.30;7.87;;;;;;;20.76;100.00;63026.81;5062743;28;20206;-75
2022/07/24 02:37:37;;;;;;;13.60;8.87;;;;;;;20.24;100.00;62962.81;5076846;28;20209;-75
2022/07/24 02:40:06;;;;;;;15.47;8.50;;;;;;;20.78;100.00;63028.44;5075491;28;20523;-75
2022/07/24 02:42:33;;;;;;;15.67;8.53;;;;;;;20.80;100.00;63031.13;5076183;28;20188;-76
2022/07/24 02:45:00;;;;;;;18.20;9.47;;;;;;;20.80;100.00;63031.13;5076463;28;20200;-75
2022/07/24 02:47:29;;;;;;;16.67;9.50;;;;;;;20.55;100.00;63004.09;5077814;28;20534;-76
2022/07/24 02:49:57;;;;;;;24.63;9.40;;;;;;;20.60;100.00;63008.97;5092601;28;20204;-77
2022/07/24 02:52:24;;;;;;;17.37;9.87;;;;;;;20.59;100.00;63005.28;5085970;28;20219;-75
2022/07/24 02:54:51;;;;;;;20.87;9.30;;;;;;;20.67;100.00;63017.06;5078539;28;20195;-75
2022/07/24 02:57:21;;;;;;;13.63;9.73;;;;;;;20.62;100.00;63011.66;5091606;28;20219;-77
2022/07/24 02:59:51;;;;;;;13.13;9.60;;;;;;;20.57;100.00;63006.25;5066380;28;20207;-76
2022/07/24 03:02:20;;;;;;;18.70;10.90;;;;;;;20.60;100.00;63004.31;5072583;28;20207;-76
2022/07/24 03:04:49;;;;;;;19.63;10.17;;;;;;;19.73;100.00;62910.22;5072393;28;20196;-77
2022/07/24 03:07:17;;;;;;;19.47;10.40;;;;;;;20.13;100.00;62964.38;5071710;28;20651;-78
2022/07/24 03:09:44;;;;;;;20.30;9.60;;;;;;;20.69;100.00;63018.69;5071431;28;20204;-77
2022/07/24 03:12:13;;;;;;;15.00;9.77;;;;;;;20.68;100.00;63012.97;5071816;28;20216;-75
2022/07/24 03:14:41;;;;;;;15.83;10.10;;;;;;;20.77;100.00;63027.34;5072267;28;20203;-74
2022/07/24 03:17:08;;;;;;;16.27;8.00;;;;;;;20.77;100.00;63025.28;5072008;28;20196;-75
2022/07/24 03:19:35;;;;;;;16.03;8.93;;;;;;;20.81;100.00;63032.22;5071935;28;20223;-75
2022/07/24 03:22:04;;;;;;;18.20;8.40;;;;;;;20.77;100.00;63022.69;5071894;28;20211;-76
2022/07/24 03:24:32;;;;;;;19.97;8.70;;;;;;;20.78;100.00;63026.38;5071910;28;20200;-76
2022/07/24 03:26:59;;;;;;;22.37;9.40;;;;;;;20.22;100.00;62965.81;5071939;28;20580;-76
2022/07/24 03:29:26;;;;;;;18.03;9.97;;;;;;;20.57;100.00;63001.06;5071793;28;20205;-77
2022/07/24 03:31:53;;;;;;;24.33;9.40;;;;;;;20.90;100.00;63041.97;5070923;28;20203;-75
2022/07/24 03:34:20;;;;;;;17.10;9.10;;;;;;;20.58;100.00;63006.78;5072508;28;20188;-75
2022/07/24 03:36:47;;;;;;;15.93;9.13;;;;;;;20.88;100.00;63034.63;5070803;28;20196;-74
2022/07/24 03:39:16;;;;;;;17.07;9.40;;;;;;;20.90;100.00;63041.97;5072646;28;20196;-75
2022/07/24 03:41:43;;;;;;;17.93;9.77;;;;;;;20.78;100.00;63028.97;5072420;28;20207;-76
2022/07/24 03:44:10;;;;;;;16.20;9.50;;;;;;;20.82;100.00;63028.13;5094989;28;20206;-76
2022/07/24 03:46:39;;;;;;;22.93;9.83;;;;;;;20.82;100.00;63033.31;5072362;28;20352;-77
2022/07/24 03:49:06;;;;;;;17.47;9.87;;;;;;;20.86;100.00;63031.91;5079840;28;20603;-77
2022/07/24 03:51:34;;;;;;;27.60;10.10;;;;;;;21.04;100.00;63056.59;5090982;28;20689;-77
2022/07/24 03:54:02;;;;;;;22.13;9.53;;;;;;;20.20;100.00;62961.06;5091436;28;20778;-74
2022/07/24 03:56:33;;;;;;;16.60;9.07;;;;;;;21.18;100.00;63068.59;5088963;28;20200;-75
2022/07/24 03:59:04;;;;;;;26.37;9.43;;;;;;;20.30;100.00;62977.06;5081771;28;20211;-74
2022/07/24 04:01:33;;;;;;;23.00;9.87;;;;;;;21.13;100.00;63065.78;5074017;28;20211;-77
2022/07/24 04:04:04;;;;;;;18.37;9.60;;;;;;;21.16;100.00;63069.03;5071413;28;20200;-73
2022/07/24 04:06:32;;;;;;;14.63;9.33;;;;;;;20.42;100.00;62990.03;5070564;28;20257;-75
2022/07/24 04:09:00;;;;;;;18.37;9.70;;;;;;;20.15;100.00;62956.19;5071486;28;20203;-75
2022/07/24 04:11:27;;;;;;;15.63;8.97;;;;;;;20.50;100.00;62998.69;5071534;28;20204;-74
2022/07/24 04:13:56;;;;;;;14.87;8.10;;;;;;;21.07;100.00;63054.63;5071489;28;20664;-77
2022/07/24 04:16:24;;;;;;;14.67;7.33;;;;;;;21.44;100.00;63099.88;5071565;28;20230;-75
2022/07/24 04:18:52;;;;;;;17.13;7.77;;;;;;;21.48;100.00;63103.66;5071957;28;20218;-76
2022/07/24 04:21:22;;;;;;;14.23;8.00;;;;;;;21.49;100.00;63104.75;5072439;28;20201;-76
2022/07/24 04:23:49;;;;;;;18.37;8.27;;;;;;;20.55;100.00;63003.53;5072111;28;20196;-78
2022/07/24 04:26:18;;;;;;;15.77;7.30;;;;;;;21.19;100.00;63072.28;5072508;28;20228;-76
2022/07/24 04:28:46;;;;;;;14.33;7.47;;;;;;;21.58;100.00;63111.88;5071837;28;20538;-78
2022/07/24 04:31:18;;;;;;;20.10;7.97;;;;;;;21.56;100.00;63112.31;5072649;28;20197;-75
2022/07/24 04:33:46;;;;;;;14.13;7.83;;;;;;;21.55;100.00;63111.78;5072314;28;20227;-76
2022/07/24 04:36:13;;;;;;;19.30;7.97;;;;;;;21.76;100.00;63133.97;5073189;28;20651;-74
2022/07/24 04:38:40;;;;;;;19.73;8.87;;;;;;;21.71;100.00;63129.09;5072122;28;20192;-73
2022/07/24 04:41:08;;;;;;;18.93;9.20;;;;;;;21.89;100.00;63150.69;5072658;28;20200;-76
2022/07/24 04:43:35;;;;;;;14.57;8.07;;;;;;;20.69;100.00;63013.50;5074729;28;20200;-75
2022/07/24 04:46:02;;;;;;;14.97;8.40;;;;;;;22.18;100.00;63178.94;5075757;28;20196;-73
2022/07/24 04:48:32;;;;;;;13.37;8.13;;;;;;;22.35;100.00;63192.72;5075987;28;20553;-75
2022/07/24 04:51:02;;;;;;;12.97;7.50;;;;;;;22.27;100.00;63184.03;5077099;28;20200;-76
2022/07/24 04:53:30;;;;;;;13.03;7.70;;;;;;;21.78;100.00;63130.94;5081738;28;20601;-75
2022/07/24 04:55:58;;;;;;;14.03;8.00;;;;;;;22.46;100.00;63204.63;5061040;28;20564;-75
2022/07/24 04:58:26;;;;;;;16.37;8.17;;;;;;;22.44;100.00;63205.06;5087665;28;20195;-76
2022/07/24 05:00:53;;;;;;;20.03;8.60;;;;;;;21.89;100.00;63148.06;5087079;28;20207;-75
2022/07/24 05:03:21;;;;;;;14.03;7.30;;;;;;;21.54;100.00;63107.56;5074546;28;20670;-76
2022/07/24 05:05:51;;;;;;;20.00;7.90;;;;;;;22.65;100.00;63229.88;5074784;28;20223;-76
2022/07/24 05:08:18;;;;;;;14.30;7.67;;;;;;;22.05;100.00;63162.81;5075034;28;20212;-76
2022/07/24 05:10:46;;;;;;;15.00;7.27;;;;;;;23.11;100.00;63274.53;5074806;28;20649;-73
2022/07/24 05:13:14;;;;;;;17.83;7.83;;;;;;;23.18;100.00;63284.19;5086006;28;20720;-75
2022/07/24 05:15:41;;;;;;;14.97;8.33;;;;;;;23.24;100.00;63293.31;5076047;28;20196;-75
2022/07/24 05:18:08;;;;;;;15.17;7.93;;;;;;;23.31;100.00;63295.69;5085498;28;20197;-76
2022/07/24 05:20:35;;;;;;;21.17;7.50;;;;;;;23.26;100.00;63290.78;5080489;28;20213;-76
2022/07/24 05:23:03;;;;;;;13.13;7.60;;;;;;;24.01;100.00;63371.63;5082467;27;20205;-75
2022/07/24 05:25:30;;;;;;;18.23;8.00;;;;;;;24.17;100.00;63391.59;5078688;28;20670;-75
2022/07/24 05:27:58;;;;;;;16.60;7.93;;;;;;;24.24;100.00;63399.22;5094011;28;20668;-74
2022/07/24 05:30:25;;;;;;;14.67;7.53;;;;;;;24.21;100.00;63395.94;5093132;28;20596;-75
2022/07/24 05:32:52;;;;;;;13.53;7.97;;;;;;;24.53;100.00;63427.00;5081436;28;20222;-75
2022/07/24 05:35:20;;;;;;;13.83;7.67;;;;;;;24.69;100.00;63446.97;5074013;28;20232;-76
2022/07/24 05:37:49;;;;;;;16.53;8.87;;;;;;;24.57;100.00;63436.56;5073953;28;20216;-74
2022/07/24 05:40:17;;;;;;;19.47;8.30;;;;;;;25.01;100.00;63479.13;5073823;28;20221;-76
2022/07/24 05:42:45;;;;;;;19.77;8.60;;;;;;;25.00;100.00;63478.56;5090178;28;20201;-76
2022/07/24 05:45:12;;;;;;;19.03;8.73;;;;;;;24.96;100.00;63476.28;5084521;28;20196;-76
2022/07/24 05:47:41;;;;;;;16.37;8.57;;;;;;;24.70;100.00;63450.66;5094156;28;20567;-74
2022/07/24 05:50:10;;;;;;;15.83;8.53;;;;;;;24.41;100.00;63421.78;5088162;27;20203;-75
2022/07/24 05:52:37;;;;;;;21.57;8.67;;;;;;;24.88;100.00;63465.00;5073477;28;20667;-77
2022/07/24 05:55:06;;;;;;;16.57;8.57;;;;;;;25.07;100.00;63485.66;5072208;28;20685;-75
2022/07/24 05:57:35;;;;;;;14.63;8.27;;;;;;;25.10;100.00;63489.44;5073516;28;20199;-75
2022/07/24 06:00:02;;;;;;;16.60;8.87;;;;;;;25.17;100.00;63507.47;5073011;28;20657;-75
2022/07/24 06:02:29;;;;;;;14.73;9.03;;;;;;;25.01;100.00;63479.13;5080472;28;20668;-74
2022/07/24 06:04:57;;;;;;;17.70;8.47;;;;;;;25.42;100.00;63523.66;5078993;28;20735;-77
2022/07/24 06:07:23;;;;;;;18.07;8.97;;;;;;;25.45;100.00;63526.94;5093137;28;20202;-74
2022/07/24 06:09:51;;;;;;;15.60;8.60;;;;;;;25.73;100.00;63556.81;5092860;28;20206;-76
2022/07/24 06:12:19;;;;;;;15.67;8.57;;;;;;;25.92;100.00;63583.22;5092798;28;20191;-75
2022/07/24 06:14:47;;;;;;;16.93;8.70;;;;;;;26.18;100.00;63605.19;5092811;28;20231;-76
2022/07/24 06:17:15;;;;;;;15.97;9.00;;;;;;;26.54;100.00;63649.56;5078846;28;20193;-74
2022/07/24 06:19:43;;;;;;;18.43;9.00;;;;;;;26.60;100.00;63650.84;5073689;28;20227;-76
2022/07/24 06:22:11;;;;;;;19.03;9.10;;;;;;;26.90;100.00;63683.50;5073148;28;20283;-76
2022/07/24 06:24:38;;;;;;;16.27;9.27;;;;;;;25.57;100.00;63545.19;5073401;28;20664;-77
2022/07/24 06:27:05;;;;;;;16.70;9.30;;;;;;;26.94;100.00;63693.06;5072473;28;20235;-77
2022/07/24 06:29:33;;;;;;;14.53;9.90;;;;;;;27.14;100.00;63709.59;5072833;28;20221;-77
2022/07/24 06:32:02;;;;;;;14.17;8.63;;;;;;;27.24;100.00;63723.09;5072900;28;20682;-75
2022/07/24 06:34:31;;;;;;;14.17;8.97;;;;;;;27.50;100.00;63754.03;5072813;28;20228;-77
2022/07/24 06:36:58;;;;;;;19.17;9.17;;;;;;;27.69;100.00;63768.38;5073040;28;20211;-76
2022/07/24 06:39:27;;;;;;;20.53;8.90;;;;;;;27.59;100.00;63761.19;5072470;28;20200;-75
2022/07/24 06:41:56;;;;;;;21.93;9.27;;;;;;;27.79;100.00;63781.88;5071870;28;20200;-74
2022/07/24 06:44:30;;;;;;;22.60;9.27;;;;;;;28.00;100.00;63805.31;5072661;28;20208;-76
2022/07/24 06:46:57;;;;;;;21.07;10.20;;;;;;;28.52;100.00;63858.19;5085713;28;20655;-75
2022/07/24 06:49:28;;;;;;;15.07;8.47;;;;;;;28.72;100.00;63880.56;5072912;28;20200;-76
2022/07/24 06:51:55;;;;;;;20.13;9.67;;;;;;;28.82;100.00;63891.44;5078292;28;20202;-76
2022/07/24 06:54:23;;;;;;;20.23;9.10;;;;;;;29.20;100.00;63932.88;5092177;28;20316;-75
2022/07/24 06:56:52;;;;;;;16.63;9.17;;;;;;;29.35;100.00;63950.75;5072184;28;20207;-74
2022/07/24 06:59:19;;;;;;;17.20;9.30;;;;;;;29.36;100.00;63949.75;5072182;28;20198;-74
2022/07/24 07:01:47;;;;;;;18.20;9.67;;;;;;;28.84;100.00;63893.63;5073438;28;20683;-76
2022/07/24 07:04:16;;;;;;;19.33;9.43;;;;;;;29.49;100.00;63963.38;5092073;28;20204;-77
2022/07/24 07:06:44;;;;;;;15.60;10.27;;;;;;;29.47;100.00;63972.25;5091324;28;20200;-76
2022/07/24 07:09:12;;;;;;;27.30;10.27;;;;;;;29.08;100.00;63919.78;5091358;28;20549;-75
2022/07/24 07:11:39;;;;;;;24.33;10.10;;;;;;;30.08;100.00;64027.75;5091764;28;20215;-76
2022/07/24 07:14:07;;;;;;;17.67;9.70;;;;;;;29.97;100.00;64021.00;5082502;28;20710;-75
2022/07/24 07:16:34;;;;;;;17.27;10.50;;;;;;;29.96;100.00;64014.66;5088157;28;20275;-75
2022/07/24 07:19:02;;;;;;;17.70;10.40;;;;;;;30.00;100.00;64019.53;5082527;28;20206;-77
2022/07/24 07:21:30;;;;;;;19.37;9.97;;;;;;;30.50;100.00;64073.56;5072574;28;20608;-76
2022/07/24 07:23:58;;;;;;;18.77;10.30;;;;;;;30.22;100.00;64048.25;5080409;28;20677;-76
2022/07/24 07:26:26;;;;;;;18.03;9.73;;;;;;;30.57;100.00;64086.47;5089642;28;20234;-77
2022/07/24 07:28:53;;;;;;;17.20;10.07;;;;;;;30.21;100.00;64041.34;5072206;28;20207;-75
2022/07/24 07:31:24;;;;;;;20.20;10.20;;;;;;;30.57;100.00;64085.91;5087767;28;20196;-75
2022/07/24 07:33:51;;;;;;;16.23;9.70;;;;;;;30.22;100.00;64045.63;5088875;28;20227;-76
2022/07/24 07:36:19;;;;;;;21.00;10.03;;;;;;;30.54;100.00;64074.75;5071823;28;20651;-75
2022/07/24 07:38:47;;;;;;;15.10;9.83;;;;;;;30.69;100.00;64094.28;5071823;28;20215;-77
2022/07/24 07:41:19;;;;;;;22.60;10.50;;;;;;;30.50;100.00;64073.56;5074721;28;20689;-78
2022/07/24 07:43:46;;;;;;;22.73;10.07;;;;;;;30.75;100.00;64106.09;5099091;28;20200;-75
2022/07/24 07:46:16;;;;;;;20.37;10.03;;;;;;;30.90;100.00;64121.41;5087284;28;20575;-76
2022/07/24 07:48:43;;;;;;;17.67;10.43;;;;;;;31.38;100.00;64168.53;5082351;28;20622;-76
2022/07/24 07:51:12;;;;;;;23.27;10.83;;;;;;;31.35;94.93;64167.88;5090805;28;20193;-75
2022/07/24 07:53:40;;;;;;;16.73;10.30;;;;;;;31.48;99.75;64179.47;5082393;28;20224;-76
2022/07/24 07:56:08;;;;;;;15.83;9.17;;;;;;;31.62;100.00;64194.75;5074328;28;20222;-76
2022/07/24 07:58:38;;;;;;;21.23;9.57;;;;;;;31.93;94.40;64228.06;5091626;28;20200;-76
2022/07/24 08:01:06;;;;;;;24.70;10.50;;;;;;;32.18;90.00;64258.00;5082550;28;20210;-76
2022/07/24 08:03:34;;;;;;;23.03;10.40;;;;;;;32.33;88.92;64277.59;5071027;28;20202;-77
2022/07/24 08:06:03;;;;;;;21.20;11.10;;;;;;;32.33;86.05;64272.31;5071770;28;20198;-76
2022/07/24 08:08:30;;;;;;;17.60;10.13;;;;;;;32.47;85.72;64287.09;5070640;28;20197;-75
2022/07/24 08:10:59;;;;;;;18.70;10.40;;;;;;;32.51;83.82;64290.91;5071651;28;20199;-77
2022/07/24 08:13:27;;;;;;;19.83;9.87;;;;;;;32.36;89.50;64275.59;5071518;28;20571;-76
2022/07/24 08:15:56;;;;;;;20.63;9.80;;;;;;;32.03;87.52;64239.53;5081931;28;20201;-75
2022/07/24 08:18:24;;;;;;;17.10;9.27;;;;;;;32.64;86.82;64310.41;5093778;28;20280;-76
2022/07/24 08:20:51;;;;;;;14.60;9.40;;;;;;;33.22;80.62;64371.16;5083352;28;20227;-75
2022/07/24 08:23:18;;;;;;;20.10;9.50;;;;;;;33.73;74.01;64423.75;5092993;28;20219;-75
2022/07/24 08:25:45;;;;;;;17.27;8.97;;;;;;;33.55;67.15;64404.06;5095041;28;20232;-75
2022/07/24 08:28:13;;;;;;;16.83;8.53;;;;;;;33.34;64.53;64386.38;5089538;28;20662;-77
2022/07/24 08:30:41;;;;;;;21.77;8.57;;;;;;;33.24;62.81;64381.28;5077391;28;20207;-77
2022/07/24 08:33:11;;;;;;;12.67;8.90;;;;;;;33.34;63.35;64381.09;5085622;28;20210;-77
2022/07/24 08:35:38;;;;;;;16.13;8.70;;;;;;;32.76;64.39;64326.16;5095659;28;20226;-75
2022/07/24 08:38:05;;;;;;;17.37;8.90;;;;;;;33.59;67.32;64405.78;5094901;28;20206;-75
2022/07/24 08:40:36;;;;;;;19.47;10.07;;;;;;;33.84;65.16;64439.00;5094318;28;20660;-77
2022/07/24 08:43:03;;;;;;;14.80;8.13;;;;;;;33.95;66.90;64448.38;5094930;28;20580;-74
2022/07/24 08:45:35;;;;;;;17.30;9.13;;;;;;;34.08;62.75;64461.50;5094416;28;20193;-75
2022/07/24 08:48:06;;;;;;;14.97;8.53;;;;;;;34.25;65.16;64483.31;5093809;28;20202;-74
2022/07/24 08:50:36;;;;;;;18.30;9.67;;;;;;;34.27;65.17;64482.84;5094469;28;20211;-76
2022/07/24 08:53:06;;;;;;;16.97;8.93;;;;;;;33.49;63.18;64403.34;5094763;28;20204;-76
2022/07/24 08:55:34;;;;;;;13.93;8.57;;;;;;;34.36;62.29;64494.78;5094298;28;20275;-76
2022/07/24 08:58:06;;;;;;;15.10;9.10;;;;;;;34.27;62.59;64482.31;5082940;28;20201;-77
2022/07/24 09:00:33;;;;;;;19.47;8.77;;;;;;;34.18;62.42;64477.75;5083088;28;20735;-75
2022/07/24 09:03:01;;;;;;;18.53;8.93;;;;;;;33.28;64.62;64387.75;5074932;28;20202;-77
2022/07/24 09:05:28;;;;;;;12.20;8.90;;;;;;;34.12;67.25;64466.44;5074604;28;20198;-74
2022/07/24 09:08:09;;;;;;;17.73;9.13;;;;;;;34.62;64.57;64523.28;5074581;28;20204;-77
2022/07/24 09:10:36;;;;;;;13.63;8.93;;;;;;;35.26;62.57;64590.69;5068121;28;20596;-75
2022/07/24 09:13:14;;;;;;;16.07;8.47;;;;;;;35.24;66.01;64593.81;5067797;28;20222;-77
2022/07/24 09:15:46;;;;;;;15.17;9.50;;;;;;;35.30;60.91;64595.09;5092445;28;20236;-76
2022/07/24 09:18:27;;;;;;;19.00;10.20;;;;;;;34.33;60.17;64489.41;5087866;28;20528;-76
2022/07/24 09:20:55;;;;;;;14.23;9.93;;;;;;;34.91;62.52;64555.03;5074212;28;20230;-75
2022/07/24 09:23:24;;;;;;;20.63;9.73;;;;;;;35.24;60.62;64593.81;5085897;28;20209;-75
2022/07/24 09:25:53;;;;;;;14.87;9.37;;;;;;;35.44;60.15;64618.38;5074879;28;20234;-78
2022/07/24 09:28:21;;;;;;;17.20;9.80;;;;;;;35.67;61.69;64640.38;5073594;28;20196;-76
2022/07/24 09:30:49;;;;;;;18.73;9.53;;;;;;;36.00;58.61;64676.00;5073881;28;20210;-76
2022/07/24 09:33:19;;;;;;;20.73;9.27;;;;;;;36.19;57.63;64688.84;5074402;28;20235;-75
2022/07/24 09:35:48;;;;;;;16.37;9.43;;;;;;;35.84;56.97;64653.16;5086937;28;20223;-78
2022/07/24 09:38:18;;;;;;;18.93;9.23;;;;;;;35.05;58.32;64567.72;5076064;28;20192;-74
2022/07/24 09:40:51;;;;;;;14.90;9.67;;;;;;;35.75;58.35;64645.94;5095601;28;20595;-75
2022/07/24 09:43:22;;;;;;;18.93;9.60;;;;;;;35.56;57.69;64625.69;5097865;28;20206;-75
2022/07/24 09:45:58;;;;;;;17.80;9.80;;;;;;;35.71;60.37;64641.56;5075416;28;20207;-75
2022/07/24 09:48:28;;;;;;;24.53;10.17;;;;;;;35.79;60.11;64647.66;5077670;28;20199;-77
2022/07/24 09:50:58;;;;;;;20.97;10.40;;;;;;;36.00;59.73;64673.38;5094073;28;20207;-75
2022/07/24 09:53:27;;;;;;;13.60;10.00;;;;;;;35.98;59.04;64665.88;5093909;28;20203;-75
2022/07/24 09:56:05;;;;;;;19.30;9.63;;;;;;;35.39;60.01;64604.94;5092852;28;20243;-76
2022/07/24 09:58:34;;;;;;;19.37;10.37;;;;;;;35.58;58.71;64625.75;5061504;28;20199;-75
2022/07/24 10:01:02;;;;;;;20.50;9.97;;;;;;;35.79;57.88;64648.22;5073898;28;20196;-75
2022/07/24 10:03:31;;;;;;;14.57;9.53;;;;;;;36.52;60.67;64727.72;5072673;28;20204;-76
2022/07/24 10:06:03;;;;;;;16.53;9.13;;;;;;;36.81;55.27;64764.81;5073885;28;20197;-78
2022/07/24 10:08:37;;;;;;;16.93;9.33;;;;;;;37.36;49.86;64821.41;5073147;28;20253;-77
2022/07/24 10:11:06;;;;;;;20.60;9.07;;;;;;;37.83;48.87;64870.31;5073701;28;20290;-76
2022/07/24 10:13:35;;;;;;;18.93;8.80;;;;;;;37.42;47.89;64825.31;5073588;28;20270;-76
2022/07/24 10:16:19;;;;;;;16.40;8.80;;;;;;;37.97;44.83;64888.34;5073743;28;20235;-77
2022/07/24 10:18:49;;;;;;;11.70;7.87;;;;;;;37.96;44.56;64887.22;5067848;28;20195;-76
2022/07/24 10:21:24;;;;;;;15.67;8.03;;;;;;;36.98;43.36;64777.59;5093223;28;20215;-76
2022/07/24 10:24:18;;;;;;;15.93;8.90;;;;;;;37.66;45.21;64857.50;5092702;28;20195;-76
2022/07/24 10:26:49;;;;;;;13.53;8.40;;;;;;;37.36;46.71;64821.41;5072450;28;20231;-76
2022/07/24 10:29:18;;;;;;;12.07;7.90;;;;;;;37.09;44.78;64787.53;5074977;28;20671;-78
2022/07/24 10:31:47;;;;;;;11.77;7.70;;;;;;;36.93;45.78;64772.66;5073074;28;20199;-76
2022/07/24 10:34:21;;;;;;;12.40;8.10;;;;;;;36.68;46.36;64744.69;5088180;28;20196;-74
2022/07/24 10:37:00;;;;;;;14.20;7.80;;;;;;;36.74;47.30;64751.81;5093346;28;20196;-78
2022/07/24 10:39:49;;;;;;;11.67;7.70;;;;;;;37.75;45.03;64861.53;5092569;28;20205;-77
2022/07/24 10:42:21;;;;;;;11.17;7.57;;;;;;;37.38;42.65;64820.94;5087630;28;20193;-78
2022/07/24 10:45:14;;;;;;;13.77;7.70;;;;;;;38.16;41.64;64906.50;5072910;28;20201;-74
2022/07/24 10:47:42;;;;;;;13.30;8.10;;;;;;;38.22;41.24;64913.13;5062791;28;20254;-76
2022/07/24 10:50:09;;;;;;;13.97;8.03;;;;;;;38.51;40.26;64944.97;5072083;28;20227;-74
2022/07/24 10:52:39;;;;;;;15.83;7.87;;;;;;;38.65;42.20;64960.31;5072544;28;20211;-77
2022/07/24 10:55:29;;;;;;;12.33;7.40;;;;;;;38.00;41.05;64892.19;5072195;28;20756;-75
2022/07/24 10:58:00;;;;;;;13.93;8.50;;;;;;;38.97;43.77;64994.38;5072367;28;20203;-76
2022/07/24 11:00:34;;;;;;;13.10;7.47;;;;;;;39.07;41.66;65005.91;5072398;28;20193;-75
2022/07/24 11:03:05;;;;;;;15.40;8.23;;;;;;;38.49;41.95;64948.09;5072862;28;20199;-75
2022/07/24 11:05:34;;;;;;;20.67;8.37;;;;;;;37.98;41.72;64884.09;5072944;28;20196;-77
2022/07/24 11:08:38;;;;;;;12.67;7.57;;;;;;;38.30;42.24;64921.34;5072408;28;20192;-76
2022/07/24 11:11:14;;;;;;;11.63;7.53;;;;;;;38.92;42.10;64988.88;5064279;28;20623;-75
2022/07/24 11:13:57;;;;;;;9.93;7.30;;;;;;;38.34;39.97;64925.75;5072109;28;20219;-75
2022/07/24 11:16:28;;;;;;;16.13;7.50;;;;;;;38.48;41.45;64941.66;5072120;28;20224;-76
2022/07/24 11:19:29;;;;;;;14.13;7.87;;;;;;;39.09;41.22;65007.53;5072467;28;20200;-75
2022/07/24 11:22:09;;;;;;;13.67;8.43;;;;;;;38.20;40.09;64910.91;5055459;28;20198;-76
2022/07/24 11:24:40;;;;;;;14.97;7.70;;;;;;;38.05;41.17;64899.78;5072236;28;20213;-76
2022/07/24 11:27:09;;;;;;;9.97;7.60;;;;;;;37.94;42.17;64887.69;5071866;28;20228;-76
2022/07/24 11:29:39;;;;;;;10.70;7.80;;;;;;;37.54;41.52;64841.13;5088991;28;20196;-78